sensor_id;sensor_type;location;lat;lon;timestamp;pressure;altitude;pressure_sealevel;temperature;humidity
61506;BME280;47366;51.916;4.574;2023-03-21T00:01:51;101742.28;;;9.10;100.00
61506;BME280;47366;51.916;4.574;2023-03-21T00:04:18;101737.00;;;9.07;100.00
61506;BME280;47366;51.916;4.574;2023-03-21T00:06:43;101736.00;;;9.10;100.00
61506;BME280;47366;51.916;4.574;2023-03-21T00:09:09;101729.72;;;9.09;100.00
61506;BME280;47366;51.916;4.574;2023-03-21T00:11:35;101732.56;;;9.06;100.00
61506;BME280;47366;51.916;4.574;2023-03-21T00:14:00;101732.56;;;9.06;100.00
61506;BME280;47366;51.916;4.574;2023-03-21T00:16:27;101729.09;;;9.03;100.00
61506;BME280;47366;51.916;4.574;2023-03-21T00:18:55;101724.56;;;9.03;100.00
61506;BME280;47366;51.916;4.574;2023-03-21T00:21:22;101723.50;;;9.07;100.00
61506;BME280;47366;51.916;4.574;2023-03-21T00:23:59;101718.16;;;9.06;100.00
61506;BME280;47366;51.916;4.574;2023-03-21T00:26:25;101729.09;;;9.03;100.00
61506;BME280;47366;51.916;4.574;2023-03-21T00:28:51;101716.44;;;9.03;100.00
61506;BME280;47366;51.916;4.574;2023-03-21T00:31:17;101713.75;;;9.03;100.00
61506;BME280;47366;51.916;4.574;2023-03-21T00:33:42;101726.28;;;9.06;100.00
61506;BME280;47366;51.916;4.574;2023-03-21T00:36:08;101719.16;;;9.03;100.00
61506;BME280;47366;51.916;4.574;2023-03-21T00:38:35;101714.75;;;9.01;100.00
61506;BME280;47366;51.916;4.574;2023-03-21T00:41:09;101720.94;;;9.04;100.00
61506;BME280;47366;51.916;4.574;2023-03-21T00:43:35;101718.34;;;9.01;100.00
61506;BME280;47366;51.916;4.574;2023-03-21T00:46:00;101718.34;;;9.01;100.00
61506;BME280;47366;51.916;4.574;2023-03-21T00:48:28;101706.63;;;9.01;100.00
61506;BME280;47366;51.916;4.574;2023-03-21T00:50:55;101704.91;;;9.00;100.00
61506;BME280;47366;51.916;4.574;2023-03-21T00:53:21;101703.94;;;9.01;100.00
61506;BME280;47366;51.916;4.574;2023-03-21T00:55:47;101702.25;;;8.98;100.00
61506;BME280;47366;51.916;4.574;2023-03-21T00:58:13;101702.19;;;9.00;100.00
61506;BME280;47366;51.916;4.574;2023-03-21T01:00:39;101693.22;;;8.99;100.00
61506;BME280;47366;51.916;4.574;2023-03-21T01:03:06;101691.38;;;9.00;100.00
61506;BME280;47366;51.916;4.574;2023-03-21T01:05:36;101682.31;;;9.01;100.00
61506;BME280;47366;51.916;4.574;2023-03-21T01:08:21;101689.56;;;9.00;100.00
61506;BME280;47366;51.916;4.574;2023-03-21T01:10:48;101679.63;;;9.01;100.00
61506;BME280;47366;51.916;4.574;2023-03-21T01:13:16;101681.44;;;9.00;100.00
61506;BME280;47366;51.916;4.574;2023-03-21T01:15:44;101678.69;;;9.02;100.00
61506;BME280;47366;51.916;4.574;2023-03-21T01:18:11;101669.78;;;9.00;100.00
61506;BME280;47366;51.916;4.574;2023-03-21T01:20:36;101668.03;;;8.99;100.00
61506;BME280;47366;51.916;4.574;2023-03-21T01:23:02;101665.38;;;8.97;100.00
61506;BME280;47366;51.916;4.574;2023-03-21T01:25:27;101659.09;;;8.97;100.00
61506;BME280;47366;51.916;4.574;2023-03-21T01:27:52;101661.78;;;8.97;100.00
61506;BME280;47366;51.916;4.574;2023-03-21T01:30:19;101656.41;;;8.97;100.00
61506;BME280;47366;51.916;4.574;2023-03-21T01:32:45;101655.44;;;8.98;100.00
61506;BME280;47366;51.916;4.574;2023-03-21T01:35:10;101650.03;;;8.98;100.00
61506;BME280;47366;51.916;4.574;2023-03-21T01:37:35;101647.38;;;8.96;100.00
61506;BME280;47366;51.916;4.574;2023-03-21T01:40:01;101647.31;;;8.98;100.00
61506;BME280;47366;51.916;4.574;2023-03-21T01:42:29;101653.69;;;8.97;100.00
61506;BME280;47366;51.916;4.574;2023-03-21T01:45:06;101648.28;;;8.97;100.00
61506;BME280;47366;51.916;4.574;2023-03-21T01:47:50;101646.50;;;8.96;100.00
61506;BME280;47366;51.916;4.574;2023-03-21T01:50:16;101642.94;;;8.95;100.00
61506;BME280;47366;51.916;4.574;2023-03-21T01:52:41;101650.09;;;8.96;100.00
61506;BME280;47366;51.916;4.574;2023-03-21T01:55:09;101646.50;;;8.96;100.00
61506;BME280;47366;51.916;4.574;2023-03-21T01:57:41;101649.28;;;8.94;100.00
61506;BME280;47366;51.916;4.574;2023-03-21T02:00:10;101644.75;;;8.95;100.00
61506;BME280;47366;51.916;4.574;2023-03-21T02:02:42;101640.38;;;8.92;100.00
61506;BME280;47366;51.916;4.574;2023-03-21T02:08:10;101636.72;;;8.93;100.00
61506;BME280;47366;51.916;4.574;2023-03-21T02:10:38;101632.28;;;8.92;100.00
61506;BME280;47366;51.916;4.574;2023-03-21T02:13:04;101630.50;;;8.91;100.00
61506;BME280;47366;51.916;4.574;2023-03-21T02:15:37;101625.03;;;8.92;100.00
61506;BME280;47366;51.916;4.574;2023-03-21T02:31:55;101616.25;;;8.87;100.00
61506;BME280;47366;51.916;4.574;2023-03-21T02:43:08;101600.91;;;8.88;100.00
61506;BME280;47366;51.916;4.574;2023-03-21T02:46:04;101593.63;;;8.90;100.00
61506;BME280;47366;51.916;4.574;2023-03-21T02:48:51;101597.19;;;8.90;100.00
61506;BME280;47366;51.916;4.574;2023-03-21T02:51:22;101589.22;;;8.87;100.00
61506;BME280;47366;51.916;4.574;2023-03-21T02:53:55;101591.78;;;8.90;100.00
61506;BME280;47366;51.916;4.574;2023-03-21T02:56:23;101593.69;;;8.88;100.00
61506;BME280;47366;51.916;4.574;2023-03-21T02:58:50;101592.81;;;8.88;100.00
61506;BME280;47366;51.916;4.574;2023-03-21T03:01:16;101582.81;;;8.90;100.00
61506;BME280;47366;51.916;4.574;2023-03-21T03:03:41;101582.81;;;8.90;100.00
61506;BME280;47366;51.916;4.574;2023-03-21T03:06:35;101578.28;;;8.90;100.00
61506;BME280;47366;51.916;4.574;2023-03-21T03:11:50;101580.16;;;8.88;100.00
61506;BME280;47366;51.916;4.574;2023-03-21T03:14:37;101589.91;;;8.92;100.00
61506;BME280;47366;51.916;4.574;2023-03-21T03:25:44;101580.94;;;8.92;100.00
61506;BME280;47366;51.916;4.574;2023-03-21T03:28:14;101587.22;;;8.92;100.00
61506;BME280;47366;51.916;4.574;2023-03-21T03:30:42;101580.94;;;8.92;100.00
61506;BME280;47366;51.916;4.574;2023-03-21T03:33:09;101576.53;;;8.89;100.00
61506;BME280;47366;51.916;4.574;2023-03-21T03:35:35;101580.13;;;8.90;100.00
61506;BME280;47366;51.916;4.574;2023-03-21T03:38:03;101573.75;;;8.91;100.00
61506;BME280;47366;51.916;4.574;2023-03-21T03:40:35;101575.63;;;8.89;100.00
61506;BME280;47366;51.916;4.574;2023-03-21T03:43:09;101571.25;;;8.86;100.00
61506;BME280;47366;51.916;4.574;2023-03-21T03:45:51;101567.63;;;8.87;100.00
61506;BME280;47366;51.916;4.574;2023-03-21T03:50:54;101554.25;;;8.84;100.00
61506;BME280;47366;51.916;4.574;2023-03-21T03:55:54;101558.69;;;8.85;100.00
61506;BME280;47366;51.916;4.574;2023-03-21T03:58:22;101555.94;;;8.87;100.00
61506;BME280;47366;51.916;4.574;2023-03-21T04:00:48;101555.84;;;8.88;100.00
61506;BME280;47366;51.916;4.574;2023-03-21T04:03:13;101546.94;;;8.86;100.00
61506;BME280;47366;51.916;4.574;2023-03-21T04:05:39;101542.44;;;8.87;100.00
61506;BME280;47366;51.916;4.574;2023-03-21T04:08:06;101538.03;;;8.84;100.00
61506;BME280;47366;51.916;4.574;2023-03-21T04:10:31;101525.47;;;8.83;100.00
61506;BME280;47366;51.916;4.574;2023-03-21T04:12:57;101535.25;;;8.86;100.00
61506;BME280;47366;51.916;4.574;2023-03-21T04:15:22;101531.69;;;8.85;100.00
61506;BME280;47366;51.916;4.574;2023-03-21T04:17:47;101531.75;;;8.84;100.00
61506;BME280;47366;51.916;4.574;2023-03-21T04:20:13;101531.81;;;8.82;100.00
61506;BME280;47366;51.916;4.574;2023-03-21T04:22:38;101526.41;;;8.82;100.00
61506;BME280;47366;51.916;4.574;2023-03-21T04:25:04;101526.53;;;8.79;100.00
61506;BME280;47366;51.916;4.574;2023-03-21T04:27:30;101523.91;;;8.78;100.00
61506;BME280;47366;51.916;4.574;2023-03-21T04:29:57;101522.16;;;8.77;100.00
61506;BME280;47366;51.916;4.574;2023-03-21T04:32:24;101519.38;;;8.78;100.00
61506;BME280;47366;51.916;4.574;2023-03-21T04:34:50;101525.66;;;8.79;100.00
61506;BME280;47366;51.916;4.574;2023-03-21T04:37:19;101517.41;;;8.82;100.00
61506;BME280;47366;51.916;4.574;2023-03-21T04:39:45;101518.38;;;8.81;100.00
61506;BME280;47366;51.916;4.574;2023-03-21T04:42:13;101522.91;;;8.80;100.00
61506;BME280;47366;51.916;4.574;2023-03-21T04:44:43;101517.56;;;8.79;100.00
61506;BME280;47366;51.916;4.574;2023-03-21T04:47:09;101516.69;;;8.78;100.00
61506;BME280;47366;51.916;4.574;2023-03-21T04:49:35;101516.75;;;8.77;100.00
61506;BME280;47366;51.916;4.574;2023-03-21T04:52:00;101508.63;;;8.77;100.00
61506;BME280;47366;51.916;4.574;2023-03-21T04:54:25;101506.84;;;8.77;100.00
61506;BME280;47366;51.916;4.574;2023-03-21T04:56:51;101506.69;;;8.80;100.00
61506;BME280;47366;51.916;4.574;2023-03-21T04:59:17;101502.22;;;8.79;100.00
61506;BME280;47366;51.916;4.574;2023-03-21T05:01:44;101496.75;;;8.81;100.00
61506;BME280;47366;51.916;4.574;2023-03-21T05:04:11;101490.63;;;8.77;100.00
61506;BME280;47366;51.916;4.574;2023-03-21T05:06:38;101499.53;;;8.79;100.00
61506;BME280;47366;51.916;4.574;2023-03-21T05:09:04;101490.34;;;8.83;100.00
61506;BME280;47366;51.916;4.574;2023-03-21T05:11:32;101499.41;;;8.82;100.00
61506;BME280;47366;51.916;4.574;2023-03-21T05:14:00;101498.50;;;8.82;100.00
61506;BME280;47366;51.916;4.574;2023-03-21T05:16:26;101499.41;;;8.82;100.00
61506;BME280;47366;51.916;4.574;2023-03-21T05:18:55;101493.25;;;8.79;100.00
61506;BME280;47366;51.916;4.574;2023-03-21T05:21:21;101504.00;;;8.80;100.00
61506;BME280;47366;51.916;4.574;2023-03-21T05:23:47;101509.41;;;8.80;100.00
61506;BME280;47366;51.916;4.574;2023-03-21T05:26:20;101497.63;;;8.81;100.00
61506;BME280;47366;51.916;4.574;2023-03-21T05:28:46;101497.53;;;8.84;100.00
61506;BME280;47366;51.916;4.574;2023-03-21T05:31:18;101501.22;;;8.82;100.00
61506;BME280;47366;51.916;4.574;2023-03-21T05:33:45;101493.09;;;8.82;100.00
61506;BME280;47366;51.916;4.574;2023-03-21T05:36:10;101500.28;;;8.83;100.00
61506;BME280;47366;51.916;4.574;2023-03-21T05:38:36;101506.59;;;8.82;100.00
61506;BME280;47366;51.916;4.574;2023-03-21T05:41:02;101496.63;;;8.84;100.00
61506;BME280;47366;51.916;4.574;2023-03-21T05:43:27;101501.91;;;8.87;100.00
61506;BME280;47366;51.916;4.574;2023-03-21T05:45:53;101496.50;;;8.87;100.00
61506;BME280;47366;51.916;4.574;2023-03-21T05:48:18;101495.59;;;8.86;100.00
61506;BME280;47366;51.916;4.574;2023-03-21T05:50:44;101493.72;;;8.88;100.00
61506;BME280;47366;51.916;4.574;2023-03-21T05:53:10;101496.41;;;8.88;100.00
61506;BME280;47366;51.916;4.574;2023-03-21T05:55:36;101491.16;;;8.85;100.00
61506;BME280;47366;51.916;4.574;2023-03-21T05:58:01;101495.50;;;8.89;100.00
61506;BME280;47366;51.916;4.574;2023-03-21T06:00:27;101497.28;;;8.89;100.00
61506;BME280;47366;51.916;4.574;2023-03-21T06:02:52;101498.25;;;8.88;100.00
61506;BME280;47366;51.916;4.574;2023-03-21T06:05:18;101491.00;;;8.88;100.00
61506;BME280;47366;51.916;4.574;2023-03-21T06:07:43;101499.13;;;8.88;100.00
61506;BME280;47366;51.916;4.574;2023-03-21T06:10:09;101501.91;;;8.87;100.00
61506;BME280;47366;51.916;4.574;2023-03-21T06:12:35;101511.81;;;8.86;100.00
61506;BME280;47366;51.916;4.574;2023-03-21T06:15:01;101507.31;;;8.87;100.00
61506;BME280;47366;51.916;4.574;2023-03-21T06:17:26;101504.72;;;8.84;100.00
61506;BME280;47366;51.916;4.574;2023-03-21T06:19:51;101510.06;;;8.85;100.00
61506;BME280;47366;51.916;4.574;2023-03-21T06:22:17;101504.53;;;8.88;100.00
61506;BME280;47366;51.916;4.574;2023-03-21T06:24:42;101502.78;;;8.87;100.00
61506;BME280;47366;51.916;4.574;2023-03-21T06:27:07;101513.59;;;8.87;100.00
61506;BME280;47366;51.916;4.574;2023-03-21T06:29:33;101501.91;;;8.87;100.00
61506;BME280;47366;51.916;4.574;2023-03-21T06:31:58;101520.63;;;8.91;100.00
61506;BME280;47366;51.916;4.574;2023-03-21T06:34:24;101509.81;;;8.91;100.00
61506;BME280;47366;51.916;4.574;2023-03-21T06:36:50;101521.53;;;8.90;100.00
61506;BME280;47366;51.916;4.574;2023-03-21T06:39:16;101504.53;;;8.88;100.00
61506;BME280;47366;51.916;4.574;2023-03-21T06:41:42;101511.75;;;8.88;100.00
61506;BME280;47366;51.916;4.574;2023-03-21T06:44:07;101501.91;;;8.87;100.00
61506;BME280;47366;51.916;4.574;2023-03-21T06:46:33;101506.41;;;8.86;100.00
61506;BME280;47366;51.916;4.574;2023-03-21T06:48:58;101504.66;;;8.85;100.00
61506;BME280;47366;51.916;4.574;2023-03-21T06:51:23;101497.63;;;8.81;100.00
61506;BME280;47366;51.916;4.574;2023-03-21T06:53:49;101496.91;;;8.78;100.00
61506;BME280;47366;51.916;4.574;2023-03-21T06:56:15;101488.72;;;8.79;100.00
61506;BME280;47366;51.916;4.574;2023-03-21T06:58:40;101484.06;;;8.83;100.00
61506;BME280;47366;51.916;4.574;2023-03-21T07:01:06;101491.31;;;8.82;100.00
61506;BME280;47366;51.916;4.574;2023-03-21T07:03:32;101472.41;;;8.82;100.00
61506;BME280;47366;51.916;4.574;2023-03-21T07:06:06;101476.63;;;8.88;100.00
61506;BME280;47366;51.916;4.574;2023-03-21T07:08:32;101467.91;;;8.81;100.00
61506;BME280;47366;51.916;4.574;2023-03-21T07:10:58;101465.16;;;8.83;100.00
61506;BME280;47366;51.916;4.574;2023-03-21T07:13:23;101457.94;;;8.83;100.00
61506;BME280;47366;51.916;4.574;2023-03-21T07:15:49;101463.34;;;8.83;100.00
61506;BME280;47366;51.916;4.574;2023-03-21T07:18:14;101475.00;;;8.84;100.00
61506;BME280;47366;51.916;4.574;2023-03-21T07:20:39;101471.44;;;8.83;100.00
61506;BME280;47366;51.916;4.574;2023-03-21T07:23:05;101475.97;;;8.83;100.00
61506;BME280;47366;51.916;4.574;2023-03-21T07:25:31;101459.81;;;8.81;100.00
61506;BME280;47366;51.916;4.574;2023-03-21T07:27:56;101466.22;;;8.79;100.00
61506;BME280;47366;51.916;4.574;2023-03-21T07:30:22;101469.03;;;8.77;100.00
61506;BME280;47366;51.916;4.574;2023-03-21T07:32:47;101459.09;;;8.78;100.00
61506;BME280;47366;51.916;4.574;2023-03-21T07:35:15;101466.09;;;8.82;100.00
61506;BME280;47366;51.916;4.574;2023-03-21T07:37:41;101462.47;;;8.83;100.00
61506;BME280;47366;51.916;4.574;2023-03-21T07:40:07;101463.38;;;8.82;100.00
61506;BME280;47366;51.916;4.574;2023-03-21T07:42:35;101466.84;;;8.85;100.00
61506;BME280;47366;51.916;4.574;2023-03-21T07:45:01;101464.00;;;8.88;100.00
61506;BME280;47366;51.916;4.574;2023-03-21T07:47:29;101460.44;;;8.88;100.00
61506;BME280;47366;51.916;4.574;2023-03-21T07:49:54;101457.78;;;8.86;100.00
61506;BME280;47366;51.916;4.574;2023-03-21T07:52:19;101468.38;;;8.91;100.00
61506;BME280;47366;51.916;4.574;2023-03-21T07:54:45;101458.34;;;8.95;100.00
61506;BME280;47366;51.916;4.574;2023-03-21T07:57:10;101444.97;;;8.91;100.00
61506;BME280;47366;51.916;4.574;2023-03-21T07:59:35;101451.16;;;8.93;100.00
61506;BME280;47366;51.916;4.574;2023-03-21T08:02:01;101437.75;;;8.92;100.00
61506;BME280;47366;51.916;4.574;2023-03-21T08:04:26;101442.94;;;8.97;100.00
61506;BME280;47366;51.916;4.574;2023-03-21T08:06:52;101447.31;;;8.99;100.00
61506;BME280;47366;51.916;4.574;2023-03-21T08:09:17;101441.03;;;8.99;100.00
61506;BME280;47366;51.916;4.574;2023-03-21T08:11:42;101446.34;;;9.00;100.00
61506;BME280;47366;51.916;4.574;2023-03-21T08:14:08;101438.09;;;9.03;100.00
61506;BME280;47366;51.916;4.574;2023-03-21T08:16:33;101439.88;;;9.04;100.00
61506;BME280;47366;51.916;4.574;2023-03-21T08:18:58;101437.19;;;9.04;100.00
61506;BME280;47366;51.916;4.574;2023-03-21T08:21:24;101430.75;;;9.07;100.00
61506;BME280;47366;51.916;4.574;2023-03-21T08:23:49;101427.78;;;9.13;100.00
61506;BME280;47366;51.916;4.574;2023-03-21T08:26:15;101430.28;;;9.18;100.00
61506;BME280;47366;51.916;4.574;2023-03-21T08:28:44;101425.75;;;9.18;100.00
61506;BME280;47366;51.916;4.574;2023-03-21T08:31:10;101425.66;;;9.20;100.00
61506;BME280;47366;51.916;4.574;2023-03-21T08:33:36;101427.13;;;9.27;100.00
61506;BME280;47366;51.916;4.574;2023-03-21T08:36:02;101413.53;;;9.28;100.00
61506;BME280;47366;51.916;4.574;2023-03-21T08:38:28;101404.47;;;9.29;99.57
61506;BME280;47366;51.916;4.574;2023-03-21T08:40:55;101395.25;;;9.33;99.19
61506;BME280;47366;51.916;4.574;2023-03-21T08:43:21;101401.09;;;9.43;99.28
61506;BME280;47366;51.916;4.574;2023-03-21T08:45:46;101399.06;;;9.48;98.64
61506;BME280;47366;51.916;4.574;2023-03-21T08:48:11;101396.06;;;9.54;98.13
61506;BME280;47366;51.916;4.574;2023-03-21T08:50:37;101400.22;;;9.62;97.37
61506;BME280;47366;51.916;4.574;2023-03-21T08:53:02;101406.00;;;9.73;97.19
61506;BME280;47366;51.916;4.574;2023-03-21T08:55:27;101399.47;;;9.77;96.49
61506;BME280;47366;51.916;4.574;2023-03-21T08:57:52;101395.59;;;9.83;96.97
61506;BME280;47366;51.916;4.574;2023-03-21T09:00:18;101385.47;;;9.86;97.11
61506;BME280;47366;51.916;4.574;2023-03-21T09:02:46;101386.22;;;9.90;97.38
61506;BME280;47366;51.916;4.574;2023-03-21T09:05:13;101381.38;;;9.96;97.31
61506;BME280;47366;51.916;4.574;2023-03-21T09:07:39;101378.56;;;9.98;97.49
61506;BME280;47366;51.916;4.574;2023-03-21T09:10:06;101372.88;;;10.04;97.51
61506;BME280;47366;51.916;4.574;2023-03-21T09:12:33;101375.47;;;10.06;96.59
61506;BME280;47366;51.916;4.574;2023-03-21T09:14:58;101370.50;;;10.15;96.89
61506;BME280;47366;51.916;4.574;2023-03-21T09:17:26;101373.03;;;10.18;96.74
61506;BME280;47366;51.916;4.574;2023-03-21T09:19:52;101364.75;;;10.21;96.46
61506;BME280;47366;51.916;4.574;2023-03-21T09:22:17;101368.94;;;10.27;95.67
61506;BME280;47366;51.916;4.574;2023-03-21T09:24:43;101370.69;;;10.30;95.81
61506;BME280;47366;51.916;4.574;2023-03-21T09:27:13;101359.59;;;10.34;95.97
61506;BME280;47366;51.916;4.574;2023-03-21T09:29:39;101369.81;;;10.47;96.55
61506;BME280;47366;51.916;4.574;2023-03-21T09:32:08;101363.97;;;10.54;95.93
61506;BME280;47366;51.916;4.574;2023-03-21T09:34:34;101362.84;;;10.58;95.27
61506;BME280;47366;51.916;4.574;2023-03-21T09:37:01;101360.44;;;10.70;95.85
61506;BME280;47366;51.916;4.574;2023-03-21T09:39:27;101368.56;;;10.70;95.04
61506;BME280;47366;51.916;4.574;2023-03-21T09:42:09;101368.47;;;10.71;95.46
61506;BME280;47366;51.916;4.574;2023-03-21T09:44:50;101361.31;;;10.70;95.69
61506;BME280;47366;51.916;4.574;2023-03-21T09:49:45;101376.63;;;10.71;95.82
61506;BME280;47366;51.916;4.574;2023-03-21T09:55:01;101365.78;;;10.71;95.73
61506;BME280;47366;51.916;4.574;2023-03-21T09:57:41;101348.53;;;10.72;95.81
61506;BME280;47366;51.916;4.574;2023-03-21T10:00:15;101358.19;;;10.78;96.28
61506;BME280;47366;51.916;4.574;2023-03-21T10:02:47;101361.59;;;10.81;96.02
61506;BME280;47366;51.916;4.574;2023-03-21T10:05:20;101350.50;;;10.86;96.09
61506;BME280;47366;51.916;4.574;2023-03-21T10:08:05;101361.34;;;10.86;95.77
61506;BME280;47366;51.916;4.574;2023-03-21T10:10:34;101355.13;;;10.84;95.44
61506;BME280;47366;51.916;4.574;2023-03-21T10:13:01;101348.84;;;10.83;95.60
61506;BME280;47366;51.916;4.574;2023-03-21T10:15:27;101350.34;;;10.89;95.90
61506;BME280;47366;51.916;4.574;2023-03-21T10:18:01;101351.06;;;10.93;96.41
61506;BME280;47366;51.916;4.574;2023-03-21T10:20:36;101369.97;;;10.94;95.93
61506;BME280;47366;51.916;4.574;2023-03-21T10:23:09;101369.06;;;10.94;95.73
61506;BME280;47366;51.916;4.574;2023-03-21T10:25:46;101389.56;;;10.99;96.04
61506;BME280;47366;51.916;4.574;2023-03-21T10:28:19;101381.31;;;11.01;95.80
61506;BME280;47366;51.916;4.574;2023-03-21T10:30:52;101391.09;;;11.03;94.94
61506;BME280;47366;51.916;4.574;2023-03-21T10:33:23;101386.41;;;11.07;95.22
61506;BME280;47366;51.916;4.574;2023-03-21T10:35:55;101384.66;;;11.06;94.41
61506;BME280;47366;51.916;4.574;2023-03-21T10:38:24;101386.22;;;11.10;93.90
61506;BME280;47366;51.916;4.574;2023-03-21T10:40:50;101380.66;;;11.13;94.05
61506;BME280;47366;51.916;4.574;2023-03-21T10:43:30;101383.88;;;11.20;94.37
61506;BME280;47366;51.916;4.574;2023-03-21T10:46:26;101374.81;;;11.21;93.90
61506;BME280;47366;51.916;4.574;2023-03-21T10:48:52;101357.56;;;11.22;93.58
61506;BME280;47366;51.916;4.574;2023-03-21T10:51:26;101351.19;;;11.23;92.16
61506;BME280;47366;51.916;4.574;2023-03-21T10:53:54;101365.53;;;11.25;93.24
61506;BME280;47366;51.916;4.574;2023-03-21T10:56:25;101354.34;;;11.31;92.65
61506;BME280;47366;51.916;4.574;2023-03-21T10:58:53;101345.88;;;11.37;93.09
61506;BME280;47366;51.916;4.574;2023-03-21T11:01:26;101317.69;;;11.40;91.24
61506;BME280;47366;51.916;4.574;2023-03-21T11:03:56;101317.50;;;11.43;91.36
61506;BME280;47366;51.916;4.574;2023-03-21T11:06:31;101326.34;;;11.46;91.00
61506;BME280;47366;51.916;4.574;2023-03-21T11:09:07;101332.53;;;11.48;90.47
61506;BME280;47366;51.916;4.574;2023-03-21T11:11:39;101332.13;;;11.56;89.81
61506;BME280;47366;51.916;4.574;2023-03-21T11:14:11;101341.66;;;11.47;89.25
61506;BME280;47366;51.916;4.574;2023-03-21T11:16:48;101349.78;;;11.47;89.46
61506;BME280;47366;51.916;4.574;2023-03-21T11:19:25;101345.50;;;11.43;89.43
61506;BME280;47366;51.916;4.574;2023-03-21T11:21:55;101344.88;;;11.38;90.17
61506;BME280;47366;51.916;4.574;2023-03-21T11:24:22;101342.44;;;11.34;89.91
61506;BME280;47366;51.916;4.574;2023-03-21T11:26:48;101340.78;;;11.31;89.85
61506;BME280;47366;51.916;4.574;2023-03-21T11:29:31;101338.34;;;11.42;89.31
61506;BME280;47366;51.916;4.574;2023-03-21T11:32:10;101338.31;;;11.58;89.60
61506;BME280;47366;51.916;4.574;2023-03-21T11:34:48;101340.94;;;11.60;87.63
61506;BME280;47366;51.916;4.574;2023-03-21T11:37:32;101342.59;;;11.62;87.49
61506;BME280;47366;51.916;4.574;2023-03-21T11:40:18;101358.09;;;11.76;88.41
61506;BME280;47366;51.916;4.574;2023-03-21T11:42:46;101358.19;;;11.90;88.93
61506;BME280;47366;51.916;4.574;2023-03-21T11:45:22;101354.84;;;12.01;87.15
61506;BME280;47366;51.916;4.574;2023-03-21T11:47:49;101341.94;;;12.05;86.54
61506;BME280;47366;51.916;4.574;2023-03-21T11:50:32;101344.66;;;12.05;86.32
61506;BME280;47366;51.916;4.574;2023-03-21T11:58:30;101338.88;;;12.11;85.94
61506;BME280;47366;51.916;4.574;2023-03-21T12:01:06;101336.25;;;12.09;85.57
61506;BME280;47366;51.916;4.574;2023-03-21T12:04:02;101334.13;;;12.15;85.62
61506;BME280;47366;51.916;4.574;2023-03-21T12:09:37;101293.94;;;12.50;83.56
61506;BME280;47366;51.916;4.574;2023-03-21T12:15:00;101298.00;;;12.71;82.68
61506;BME280;47366;51.916;4.574;2023-03-21T12:23:38;101304.56;;;12.24;82.64
61506;BME280;47366;51.916;4.574;2023-03-21T12:29:27;101298.31;;;12.08;84.59
61506;BME280;47366;51.916;4.574;2023-03-21T12:32:00;101306.25;;;11.97;83.66
61506;BME280;47366;51.916;4.574;2023-03-21T12:39:54;101291.97;;;11.93;84.18
61506;BME280;47366;51.916;4.574;2023-03-21T12:42:30;101290.91;;;11.96;85.19
61506;BME280;47366;51.916;4.574;2023-03-21T12:45:08;101277.44;;;11.94;84.46
61506;BME280;47366;51.916;4.574;2023-03-21T12:47:39;101282.69;;;11.97;85.12
61506;BME280;47366;51.916;4.574;2023-03-21T12:50:14;101273.47;;;12.00;84.85
61506;BME280;47366;51.916;4.574;2023-03-21T12:52:45;101280.28;;;12.07;84.74
61506;BME280;47366;51.916;4.574;2023-03-21T12:55:21;101282.59;;;12.13;83.94
61506;BME280;47366;51.916;4.574;2023-03-21T12:58:03;101275.63;;;12.09;83.52
61506;BME280;47366;51.916;4.574;2023-03-21T13:00:56;101273.41;;;12.16;83.58
61506;BME280;47366;51.916;4.574;2023-03-21T13:03:30;101267.69;;;12.20;83.71
61506;BME280;47366;51.916;4.574;2023-03-21T13:06:03;101271.56;;;12.16;82.12
61506;BME280;47366;51.916;4.574;2023-03-21T13:10:59;101251.59;;;12.17;83.06
61506;BME280;47366;51.916;4.574;2023-03-21T13:13:49;101248.50;;;12.23;82.53
61506;BME280;47366;51.916;4.574;2023-03-21T13:19:22;101255.47;;;12.27;82.32
61506;BME280;47366;51.916;4.574;2023-03-21T13:22:14;101240.22;;;12.25;81.68
61506;BME280;47366;51.916;4.574;2023-03-21T13:24:48;101245.94;;;12.20;81.99
61506;BME280;47366;51.916;4.574;2023-03-21T13:27:28;101240.44;;;12.22;81.88
61506;BME280;47366;51.916;4.574;2023-03-21T13:30:18;101244.22;;;12.19;82.28
61506;BME280;47366;51.916;4.574;2023-03-21T13:32:47;101256.81;;;12.20;82.93
61506;BME280;47366;51.916;4.574;2023-03-21T13:35:25;101242.78;;;12.14;82.73
61506;BME280;47366;51.916;4.574;2023-03-21T13:38:13;101230.03;;;12.00;81.81
61506;BME280;47366;51.916;4.574;2023-03-21T13:40:49;101240.09;;;11.98;82.18
61506;BME280;47366;51.916;4.574;2023-03-21T13:59:11;101222.16;;;11.95;83.12
61506;BME280;47366;51.916;4.574;2023-03-21T14:01:39;101221.31;;;11.95;82.51
61506;BME280;47366;51.916;4.574;2023-03-21T14:04:18;101212.09;;;11.97;83.00
61506;BME280;47366;51.916;4.574;2023-03-21T14:06:48;101212.19;;;11.96;83.47
61506;BME280;47366;51.916;4.574;2023-03-21T14:11:58;101213.31;;;11.92;83.29
61506;BME280;47366;51.916;4.574;2023-03-21T14:14:29;101215.38;;;11.88;83.79
61506;BME280;47366;51.916;4.574;2023-03-21T14:16:57;101200.94;;;11.87;83.56
61506;BME280;47366;51.916;4.574;2023-03-21T14:19:31;101215.28;;;11.89;83.81
61506;BME280;47366;51.916;4.574;2023-03-21T14:21:57;101216.47;;;11.84;83.41
61506;BME280;47366;51.916;4.574;2023-03-21T14:24:22;101224.75;;;11.82;84.07
61506;BME280;47366;51.916;4.574;2023-03-21T14:26:53;101219.31;;;11.82;83.69
61506;BME280;47366;51.916;4.574;2023-03-21T14:29:23;101223.75;;;11.83;83.82
61506;BME280;47366;51.916;4.574;2023-03-21T14:31:49;101224.50;;;11.87;84.24
61506;BME280;47366;51.916;4.574;2023-03-21T14:34:15;101216.25;;;11.88;84.66
61506;BME280;47366;51.916;4.574;2023-03-21T14:36:41;101210.25;;;11.98;85.00
61506;BME280;47366;51.916;4.574;2023-03-21T14:39:17;101210.94;;;12.01;84.76